Time;durP1;ratioP1;P1;durP2;ratioP2;P2;SDS_P1;SDS_P2;PMS_P1;PMS_P2;Temp;Humidity;BMP_temperature;BMP_pressure;BME280_temperature;BME280_humidity;BME280_pressure;Samples;Min_cycle;Max_cycle;Signal;HPM_P1;HPM_P2
2022/09/15 00:01:11;;;;;;;15.85;8.13;;;;;;;15.31;100.00;100585.16;5064993;28;20037;-53
2022/09/15 00:03:39;;;;;;;14.57;8.35;;;;;;;15.32;100.00;100585.97;5071833;28;20048;-53
2022/09/15 00:06:07;;;;;;;14.98;7.55;;;;;;;15.31;100.00;100593.38;5063560;28;20044;-53
2022/09/15 00:08:35;;;;;;;9.70;6.65;;;;;;;15.31;100.00;100587.91;5055017;28;20044;-57
2022/09/15 00:11:08;;;;;;;13.60;8.05;;;;;;;15.31;100.00;100590.66;5066890;28;20037;-55
2022/09/15 00:13:37;;;;;;;11.68;8.38;;;;;;;15.29;100.00;100586.59;5072446;28;20048;-54
2022/09/15 00:16:05;;;;;;;17.48;8.50;;;;;;;15.26;100.00;100582.50;5054726;28;20033;-54
2022/09/15 00:18:34;;;;;;;13.82;7.68;;;;;;;15.25;100.00;100578.16;5072635;28;20052;-54
2022/09/15 00:21:07;;;;;;;12.95;7.53;;;;;;;15.26;100.00;100574.28;5073877;28;20036;-54
2022/09/15 00:23:35;;;;;;;15.43;8.43;;;;;;;15.27;100.00;100584.16;5076683;28;20514;-55
2022/09/15 00:26:07;;;;;;;15.77;9.52;;;;;;;15.25;100.00;100580.91;5072840;28;20438;-53
2022/09/15 00:28:36;;;;;;;14.55;7.28;;;;;;;15.27;100.00;100584.16;5075288;28;20036;-54
2022/09/15 00:31:06;;;;;;;13.45;8.05;;;;;;;15.29;100.00;100586.59;5074654;28;20402;-55
2022/09/15 00:33:34;;;;;;;13.90;8.82;;;;;;;15.28;100.00;100583.03;5075797;28;20044;-56
2022/09/15 00:36:04;;;;;;;13.52;7.88;;;;;;;15.29;100.00;100576.41;5071406;28;20047;-55
2022/09/15 00:38:33;;;;;;;15.30;9.07;;;;;;;15.29;100.00;100579.16;5064204;28;20391;-56
2022/09/15 00:41:02;;;;;;;16.58;8.95;;;;;;;15.29;100.00;100570.91;5075393;28;20051;-54
2022/09/15 00:43:45;;;;;;;15.70;8.80;;;;;;;15.29;100.00;100567.38;5061665;28;20037;-54
2022/09/15 00:46:14;;;;;;;12.95;8.27;;;;;;;15.30;100.00;100574.50;5070516;28;20032;-58
2022/09/15 00:48:51;;;;;;;14.32;9.05;;;;;;;15.30;100.00;100567.06;5076133;28;20049;-59
2022/09/15 00:51:23;;;;;;;14.43;8.25;;;;;;;15.29;100.00;100575.59;5075914;28;20040;-57
2022/09/15 00:53:52;;;;;;;11.40;7.05;;;;;;;15.30;100.00;100567.06;5063156;28;20049;-55
2022/09/15 00:56:21;;;;;;;13.70;8.40;;;;;;;15.30;100.00;100572.56;5069929;28;20055;-52
2022/09/15 00:58:57;;;;;;;16.17;9.30;;;;;;;15.32;100.00;100573.06;5054902;28;20522;-56
2022/09/15 01:01:27;;;;;;;12.20;8.10;;;;;;;15.30;100.00;100572.56;5063277;28;20037;-57
2022/09/15 01:03:55;;;;;;;15.85;8.98;;;;;;;15.32;100.00;100572.25;5061849;28;20102;-56
2022/09/15 01:06:36;;;;;;;11.00;7.90;;;;;;;15.33;100.00;100582.94;5068210;28;20098;-59
2022/09/15 01:09:13;;;;;;;16.00;9.38;;;;;;;15.31;100.00;100581.59;5071849;28;20063;-55
2022/09/15 01:11:41;;;;;;;17.33;9.38;;;;;;;15.29;100.00;100581.09;5065975;28;20418;-57
2022/09/15 01:14:09;;;;;;;14.63;8.80;;;;;;;15.26;100.00;100579.78;5067634;28;20052;-54
2022/09/15 01:16:59;;;;;;;16.63;9.27;;;;;;;15.24;100.00;100573.78;5074747;28;20506;-54
2022/09/15 01:19:36;;;;;;;16.83;10.63;;;;;;;15.20;100.00;100588.41;5075208;28;20434;-53
2022/09/15 01:22:13;;;;;;;16.20;9.82;;;;;;;15.14;100.00;100595.94;5074343;28;20098;-54
2022/09/15 01:25:06;;;;;;;16.40;9.88;;;;;;;15.13;100.00;100602.56;5067869;28;20045;-56
2022/09/15 01:28:01;;;;;;;17.40;10.00;;;;;;;15.12;100.00;100587.19;5074043;28;20036;-55
2022/09/15 01:30:39;;;;;;;17.13;9.75;;;;;;;15.12;100.00;100584.44;5075431;28;20052;-56
2022/09/15 01:33:22;;;;;;;16.83;9.70;;;;;;;15.10;100.00;100584.78;5072462;28;20056;-55
2022/09/15 01:36:03;;;;;;;15.32;10.07;;;;;;;15.09;100.00;100583.13;5070441;28;20094;-56
2022/09/15 01:38:40;;;;;;;16.13;10.25;;;;;;;15.10;100.00;100583.94;5071917;28;20494;-55
2022/09/15 01:41:15;;;;;;;13.95;8.73;;;;;;;15.12;100.00;100578.97;5061571;28;20501;-56
2022/09/15 01:44:04;;;;;;;14.40;9.13;;;;;;;15.15;100.00;100570.09;5073296;28;20054;-55
2022/09/15 01:46:36;;;;;;;14.50;9.18;;;;;;;15.15;100.00;100575.59;5060955;28;20040;-56
2022/09/15 01:49:05;;;;;;;14.85;9.45;;;;;;;15.17;100.00;100575.31;5074606;28;20036;-57
2022/09/15 01:51:33;;;;;;;18.05;9.43;;;;;;;15.16;100.00;100571.75;5072713;28;20409;-56
2022/09/15 01:54:03;;;;;;;13.75;8.98;;;;;;;15.16;100.00;100574.50;5072622;28;20041;-56
2022/09/15 01:56:31;;;;;;;13.00;7.80;;;;;;;15.17;100.00;100573.38;5069537;28;20402;-55
2022/09/15 01:58:59;;;;;;;13.32;7.93;;;;;;;15.18;100.00;100572.25;5061291;28;20454;-54
2022/09/15 02:01:30;;;;;;;12.05;7.88;;;;;;;15.20;100.00;100569.19;5069992;28;20040;-57
2022/09/15 02:04:04;;;;;;;13.48;9.40;;;;;;;15.20;100.00;100572.78;5074680;28;20148;-57
2022/09/15 02:06:55;;;;;;;12.70;8.25;;;;;;;15.20;100.00;100571.94;5070481;28;20086;-55
2022/09/15 02:09:35;;;;;;;14.25;7.05;;;;;;;15.21;100.00;100570.84;5073953;28;20117;-55
2022/09/15 02:12:32;;;;;;;12.80;7.13;;;;;;;15.21;100.00;100579.88;5069526;28;20044;-56
2022/09/15 02:15:07;;;;;;;14.27;7.55;;;;;;;15.22;100.00;100569.72;5071901;28;20049;-55
2022/09/15 02:17:41;;;;;;;15.15;7.95;;;;;;;15.21;100.00;100577.13;5063149;28;20056;-54
2022/09/15 02:20:30;;;;;;;14.85;8.40;;;;;;;15.20;100.00;100578.28;5086611;28;20040;-54
2022/09/15 02:23:08;;;;;;;14.10;8.43;;;;;;;15.18;100.00;100571.47;5073090;28;20044;-54
2022/09/15 02:25:42;;;;;;;11.50;7.63;;;;;;;15.18;100.00;100575.00;5052831;28;20045;-55
2022/09/15 02:28:11;;;;;;;13.57;8.55;;;;;;;15.16;100.00;100581.94;5054491;28;20045;-55
2022/09/15 02:30:40;;;;;;;13.48;7.88;;;;;;;15.14;100.00;100579.47;5071953;28;20048;-55
2022/09/15 02:33:13;;;;;;;12.50;7.50;;;;;;;15.14;100.00;100582.22;5073271;28;20041;-53
2022/09/15 02:35:41;;;;;;;14.35;8.50;;;;;;;15.14;100.00;100582.22;5074353;28;20090;-57
2022/09/15 02:38:09;;;;;;;15.85;9.30;;;;;;;15.13;100.00;100586.09;5070848;28;20113;-53
2022/09/15 02:40:41;;;;;;;14.95;8.82;;;;;;;15.11;100.00;100577.34;5072921;28;20502;-54
2022/09/15 02:43:14;;;;;;;14.70;8.60;;;;;;;15.09;100.00;100576.84;5072647;28;20093;-53
2022/09/15 02:45:42;;;;;;;15.75;8.57;;;;;;;15.08;100.00;100565.03;5072686;28;20060;-56
2022/09/15 02:48:10;;;;;;;17.38;8.93;;;;;;;15.07;100.00;100570.81;5064027;28;20033;-53
2022/09/15 02:50:38;;;;;;;12.40;8.35;;;;;;;15.06;100.00;100571.97;5067947;28;20041;-53
2022/09/15 02:53:07;;;;;;;15.48;8.70;;;;;;;15.06;100.00;100577.44;5072996;28;20070;-54
2022/09/15 02:55:35;;;;;;;14.18;8.30;;;;;;;15.05;100.00;100578.56;5073570;28;20403;-53
2022/09/15 02:58:03;;;;;;;11.48;6.95;;;;;;;15.05;100.00;100582.09;5072644;28;20036;-53
2022/09/15 03:00:31;;;;;;;12.93;8.43;;;;;;;15.06;100.00;100580.19;5068782;28;20411;-53
2022/09/15 03:02:59;;;;;;;13.85;8.35;;;;;;;15.04;100.00;100582.44;5070556;28;20041;-54
2022/09/15 03:05:28;;;;;;;14.02;7.95;;;;;;;15.04;100.00;100582.44;5075260;28;20040;-54
2022/09/15 03:07:56;;;;;;;11.07;8.10;;;;;;;15.04;100.00;100577.75;5055875;28;20071;-53
2022/09/15 03:10:24;;;;;;;15.50;8.45;;;;;;;15.03;100.00;100583.53;5067033;28;20053;-56
2022/09/15 03:12:53;;;;;;;14.38;8.57;;;;;;;15.03;100.00;100583.53;5071495;28;20036;-52
2022/09/15 03:15:23;;;;;;;15.20;8.90;;;;;;;15.02;100.00;100590.94;5074066;28;20049;-56
2022/09/15 03:17:51;;;;;;;14.80;9.15;;;;;;;15.01;100.00;100591.25;5072845;28;20502;-53
2022/09/15 03:20:27;;;;;;;12.15;8.00;;;;;;;14.99;100.00;100594.31;5070285;28;20044;-58
2022/09/15 03:22:55;;;;;;;14.90;9.20;;;;;;;14.98;100.00;100594.59;5069831;28;20525;-56
2022/09/15 03:25:25;;;;;;;14.30;8.45;;;;;;;14.96;100.00;100600.41;5071994;28;20161;-53
2022/09/15 03:27:53;;;;;;;14.00;7.95;;;;;;;14.97;100.00;100602.03;5073112;28;20050;-55
2022/09/15 03:30:21;;;;;;;14.30;8.55;;;;;;;14.97;100.00;100609.44;5072133;28;20496;-53
2022/09/15 03:32:49;;;;;;;15.05;8.30;;;;;;;14.95;100.00;100608.94;5069383;28;20040;-52
2022/09/15 03:35:16;;;;;;;12.15;8.10;;;;;;;14.94;100.00;100615.53;5071895;28;20046;-53
2022/09/15 03:37:44;;;;;;;13.95;7.80;;;;;;;14.94;100.00;100618.28;5071711;28;20051;-53
2022/09/15 03:40:13;;;;;;;14.27;8.75;;;;;;;14.93;100.00;100622.94;5068014;28;20045;-52
2022/09/15 03:42:40;;;;;;;13.68;7.82;;;;;;;14.92;100.00;100613.09;5069245;28;20040;-57
2022/09/15 03:45:09;;;;;;;13.35;8.10;;;;;;;14.91;100.00;100617.78;5060421;28;20046;-54
2022/09/15 03:47:36;;;;;;;14.30;8.77;;;;;;;14.90;100.00;100618.88;5066291;28;20045;-55
2022/09/15 03:50:05;;;;;;;12.05;7.97;;;;;;;14.89;100.00;100621.94;5058349;28;20041;-55
2022/09/15 03:52:33;;;;;;;17.08;8.00;;;;;;;14.88;100.00;100620.28;5067814;28;20041;-53
2022/09/15 03:55:01;;;;;;;12.95;8.07;;;;;;;14.87;100.00;100619.47;5072588;28;20115;-53
2022/09/15 03:57:29;;;;;;;13.50;7.72;;;;;;;14.86;100.00;100626.09;5077099;28;20048;-55
2022/09/15 03:59:57;;;;;;;16.73;8.13;;;;;;;14.86;100.00;100619.78;5076176;28;20041;-58
2022/09/15 04:02:25;;;;;;;13.80;8.30;;;;;;;14.84;100.00;100617.34;5072692;28;20047;-56
2022/09/15 04:04:52;;;;;;;13.50;7.60;;;;;;;14.84;100.00;100609.13;5076339;28;20090;-53
2022/09/15 04:07:20;;;;;;;14.68;8.35;;;;;;;14.84;100.00;100602.81;5074703;28;20040;-54
2022/09/15 04:09:48;;;;;;;15.57;7.75;;;;;;;14.81;100.00;100609.69;5068825;28;20061;-55
2022/09/15 04:12:16;;;;;;;15.07;8.23;;;;;;;14.80;100.00;100602.59;5065071;28;20032;-54
2022/09/15 04:14:44;;;;;;;11.00;7.30;;;;;;;14.80;100.00;100596.31;5061168;28;20422;-56
2022/09/15 04:17:14;;;;;;;15.25;7.43;;;;;;;14.81;100.00;100600.66;5075246;28;20499;-53
2022/09/15 04:19:42;;;;;;;12.65;7.93;;;;;;;14.82;100.00;100603.13;5073224;28;20049;-55
2022/09/15 04:22:09;;;;;;;14.10;7.57;;;;;;;14.83;100.00;100602.00;5074672;28;20036;-55
2022/09/15 04:24:46;;;;;;;17.98;7.72;;;;;;;14.83;100.00;100607.47;5075587;28;20037;-56
2022/09/15 04:27:15;;;;;;;13.20;7.20;;;;;;;14.85;100.00;100604.44;5075397;28;20051;-55
2022/09/15 04:29:43;;;;;;;12.18;6.93;;;;;;;14.85;100.00;100615.41;5074571;28;20056;-54
2022/09/15 04:32:11;;;;;;;11.55;7.68;;;;;;;14.85;100.00;100605.25;5066703;28;20395;-55
2022/09/15 04:34:38;;;;;;;12.85;7.68;;;;;;;14.86;100.00;100606.06;5070182;28;20075;-55
2022/09/15 04:37:08;;;;;;;14.48;7.40;;;;;;;14.84;100.00;100598.16;5067140;28;20049;-54
2022/09/15 04:39:36;;;;;;;13.45;7.63;;;;;;;14.87;100.00;100605.75;5069666;28;20037;-54
2022/09/15 04:42:05;;;;;;;17.08;7.80;;;;;;;14.88;100.00;100607.38;5066224;28;20056;-55
2022/09/15 04:44:33;;;;;;;12.25;7.28;;;;;;;14.89;100.00;100605.47;5075664;28;20063;-55
2022/09/15 04:47:01;;;;;;;11.82;6.97;;;;;;;14.88;100.00;100604.63;5074656;28;20051;-55
2022/09/15 04:49:30;;;;;;;12.50;7.43;;;;;;;14.89;100.00;100606.28;5049828;28;20041;-55
2022/09/15 04:51:58;;;;;;;11.35;6.57;;;;;;;14.91;100.00;100604.06;5062120;28;20037;-55
2022/09/15 04:54:26;;;;;;;12.45;6.40;;;;;;;14.94;100.00;100604.56;5075960;28;20044;-58
2022/09/15 04:56:53;;;;;;;11.70;6.32;;;;;;;14.96;100.00;100602.31;5076168;28;20122;-55
2022/09/15 04:59:21;;;;;;;10.40;6.10;;;;;;;14.97;100.00;100603.97;5075816;28;20070;-56
2022/09/15 05:01:49;;;;;;;13.90;6.13;;;;;;;14.98;100.00;100603.63;5074287;28;20423;-55
2022/09/15 05:04:17;;;;;;;11.63;6.20;;;;;;;14.99;100.00;100613.50;5060650;28;20056;-55
2022/09/15 05:06:44;;;;;;;12.30;6.28;;;;;;;15.01;100.00;100613.19;5076166;28;20044;-53
2022/09/15 05:09:13;;;;;;;13.32;6.85;;;;;;;15.00;100.00;100606.09;5056557;28;20049;-54
2022/09/15 05:11:41;;;;;;;10.07;6.05;;;;;;;14.98;100.00;100602.81;5053293;28;20433;-56
2022/09/15 05:14:10;;;;;;;11.27;6.88;;;;;;;14.98;100.00;100605.56;5074450;28;20415;-56
2022/09/15 05:16:38;;;;;;;12.40;7.55;;;;;;;14.96;100.00;100607.81;5074021;28;20502;-55
2022/09/15 05:19:08;;;;;;;15.15;7.13;;;;;;;14.91;100.00;100609.53;5068494;28;20094;-57
2022/09/15 05:21:35;;;;;;;14.02;7.78;;;;;;;14.91;100.00;100609.53;5038931;28;20036;-55
2022/09/15 05:24:03;;;;;;;13.07;7.22;;;;;;;14.91;100.00;100608.72;5075656;28;20482;-53
2022/09/15 05:26:31;;;;;;;14.43;7.47;;;;;;;14.91;100.00;100614.19;5071490;28;20044;-54
2022/09/15 05:28:59;;;;;;;11.93;6.72;;;;;;;14.89;100.00;100611.78;5066820;28;20052;-54
2022/09/15 05:31:29;;;;;;;16.33;5.70;;;;;;;14.93;100.00;100613.91;5072070;28;20032;-52
2022/09/15 05:34:03;;;;;;;12.02;6.43;;;;;;;14.91;100.00;100615.03;5075494;28;20033;-54
2022/09/15 05:36:31;;;;;;;10.70;6.70;;;;;;;14.91;100.00;100617.78;5061729;28;20048;-55
2022/09/15 05:39:00;;;;;;;13.50;6.93;;;;;;;14.90;100.00;100618.06;5062399;28;20083;-55
2022/09/15 05:41:29;;;;;;;12.75;7.70;;;;;;;14.89;100.00;100622.75;5070393;28;20051;-52
2022/09/15 05:43:58;;;;;;;16.67;7.38;;;;;;;14.89;100.00;100624.69;5062704;28;20048;-54
2022/09/15 05:46:26;;;;;;;13.68;8.15;;;;;;;14.88;100.00;100634.81;5073583;28;20568;-53
2022/09/15 05:48:56;;;;;;;16.70;7.28;;;;;;;14.89;100.00;100635.66;5061675;28;20071;-53
2022/09/15 05:51:24;;;;;;;12.45;5.95;;;;;;;14.89;100.00;100633.72;5047380;28;20069;-54
2022/09/15 05:53:52;;;;;;;14.18;6.00;;;;;;;14.94;100.00;100634.75;5072121;28;20044;-55
2022/09/15 05:56:20;;;;;;;11.00;5.57;;;;;;;14.96;100.00;100627.84;5073366;28;20173;-54
2022/09/15 05:58:48;;;;;;;10.90;5.50;;;;;;;15.00;100.00;100628.84;5044025;28;20056;-53
2022/09/15 06:01:24;;;;;;;11.68;5.82;;;;;;;15.02;100.00;100637.59;4446945;28;10001645;-55
2022/09/15 06:03:52;;;;;;;14.60;8.13;;;;;;;15.00;100.00;100645.31;5053429;28;20273;-55
2022/09/15 06:06:21;;;;;;;16.10;6.60;;;;;;;14.98;100.00;100646.72;5056088;28;20044;-54
2022/09/15 06:08:53;;;;;;;14.55;7.60;;;;;;;14.98;100.00;100649.47;5059777;28;20048;-55
2022/09/15 06:11:29;;;;;;;13.50;6.70;;;;;;;15.01;100.00;100643.38;5051798;28;20033;-55
2022/09/15 06:14:02;;;;;;;8.93;5.05;;;;;;;15.02;100.00;100642.28;5064049;28;20375;-54
2022/09/15 06:16:34;;;;;;;10.38;5.90;;;;;;;15.03;100.00;100643.88;5070720;28;20109;-55
2022/09/15 06:19:02;;;;;;;11.63;4.95;;;;;;;15.04;100.00;100646.34;5056401;28;20036;-56
2022/09/15 06:21:31;;;;;;;11.48;5.63;;;;;;;15.04;100.00;100640.84;5064836;28;20407;-52
2022/09/15 06:24:02;;;;;;;11.00;6.10;;;;;;;15.05;100.00;100649.88;5068429;28;20049;-55
2022/09/15 06:26:30;;;;;;;12.80;6.43;;;;;;;15.04;100.00;100653.75;5069379;28;20460;-54
2022/09/15 06:28:59;;;;;;;10.43;5.10;;;;;;;15.04;100.00;100656.50;5058286;28;20779;-53
2022/09/15 06:31:30;;;;;;;23.73;6.50;;;;;;;15.06;100.00;100654.28;5057065;28;20055;-54
2022/09/15 06:33:58;;;;;;;14.20;6.53;;;;;;;15.07;100.00;100655.91;5065534;28;20043;-55
2022/09/15 06:36:28;;;;;;;15.50;6.95;;;;;;;15.08;100.00;100665.75;5058158;28;20045;-55
2022/09/15 06:38:56;;;;;;;13.63;6.45;;;;;;;15.09;100.00;100664.66;5044731;28;20033;-55
2022/09/15 06:41:24;;;;;;;12.43;6.30;;;;;;;15.10;100.00;100671.75;5050171;28;20093;-54
2022/09/15 06:43:51;;;;;;;10.57;5.78;;;;;;;15.09;100.00;100675.63;5066323;28;20093;-55
2022/09/15 06:46:23;;;;;;;13.23;6.18;;;;;;;15.10;100.00;100685.47;5070563;28;20036;-57
2022/09/15 06:48:52;;;;;;;11.45;5.85;;;;;;;15.11;100.00;100684.38;5056050;28;20045;-57
2022/09/15 06:51:23;;;;;;;10.77;5.80;;;;;;;15.12;100.00;100673.06;5070271;28;20048;-56
2022/09/15 06:53:52;;;;;;;10.85;5.38;;;;;;;15.13;100.00;100685.69;5058722;28;20094;-56
2022/09/15 06:56:21;;;;;;;13.45;6.05;;;;;;;15.12;100.00;100694.22;5056064;28;20043;-56
2022/09/15 06:58:49;;;;;;;11.13;5.50;;;;;;;15.11;100.00;100693.41;5071664;28;20037;-56
2022/09/15 07:01:26;;;;;;;9.32;5.55;;;;;;;15.11;100.00;100703.59;5070847;28;20043;-56
2022/09/15 07:03:56;;;;;;;11.40;5.45;;;;;;;15.11;100.00;100698.09;5064516;28;20056;-54
2022/09/15 07:06:28;;;;;;;12.48;6.00;;;;;;;15.11;100.00;100700.84;5073304;28;20033;-56
2022/09/15 07:08:57;;;;;;;13.40;5.88;;;;;;;15.12;100.00;100702.44;5063472;28;20045;-56
2022/09/15 07:11:25;;;;;;;10.23;5.47;;;;;;;15.13;100.00;100709.59;5073388;28;20529;-57
2022/09/15 07:13:53;;;;;;;11.77;5.60;;;;;;;15.13;100.00;100704.09;5073546;28;20040;-58
2022/09/15 07:16:21;;;;;;;10.63;5.75;;;;;;;15.16;100.00;100706.22;5066586;28;20472;-56
2022/09/15 07:18:49;;;;;;;15.07;5.53;;;;;;;15.18;100.00;100700.44;5069069;28;20052;-55
2022/09/15 07:21:19;;;;;;;12.55;5.70;;;;;;;15.20;100.00;100698.19;5059675;28;20045;-56
2022/09/15 07:23:47;;;;;;;11.55;5.43;;;;;;;15.21;100.00;100700.66;5073522;28;20122;-55
2022/09/15 07:26:20;;;;;;;8.77;4.72;;;;;;;15.24;100.00;100693.72;5071793;28;20117;-54
2022/09/15 07:28:53;;;;;;;13.05;4.97;;;;;;;15.28;100.00;100697.50;5066707;28;20441;-55
2022/09/15 07:31:23;;;;;;;10.27;4.63;;;;;;;15.33;100.00;100708.41;5074745;28;20044;-55
2022/09/15 07:33:51;;;;;;;10.82;5.25;;;;;;;15.33;100.00;100709.19;5073597;28;20063;-56
2022/09/15 07:36:19;;;;;;;11.98;5.28;;;;;;;15.34;100.00;100708.09;5071113;28;20037;-55
2022/09/15 07:38:48;;;;;;;9.57;4.35;;;;;;;15.37;100.00;100708.59;5072803;28;20041;-56
2022/09/15 07:41:21;;;;;;;12.43;5.15;;;;;;;15.38;100.00;100715.72;5071740;28;20410;-58
2022/09/15 07:43:50;;;;;;;14.15;4.72;;;;;;;15.36;100.00;100723.44;5072816;28;20039;-59
2022/09/15 07:46:19;;;;;;;13.25;5.25;;;;;;;15.36;100.00;100728.94;5072142;28;20517;-57
2022/09/15 07:48:48;;;;;;;9.05;4.47;;;;;;;15.39;100.00;100725.56;5057118;28;20045;-57
2022/09/15 07:51:16;;;;;;;11.38;4.60;;;;;;;15.42;100.00;100733.22;5071425;28;20041;-56
2022/09/15 07:53:45;;;;;;;11.95;4.97;;;;;;;15.44;100.00;100733.72;5053217;28;20126;-55
2022/09/15 07:56:16;;;;;;;13.07;5.30;;;;;;;15.43;100.00;100735.66;5071032;28;20086;-55
2022/09/15 07:58:48;;;;;;;11.77;4.45;;;;;;;15.42;100.00;100730.50;5059165;28;20510;-55
2022/09/15 08:01:17;;;;;;;9.45;4.63;;;;;;;15.41;100.00;100737.06;5071685;28;20041;-56
2022/09/15 08:03:50;;;;;;;12.05;4.50;;;;;;;15.40;100.00;100735.47;5071632;28;20049;-55
2022/09/15 08:06:20;;;;;;;13.65;4.18;;;;;;;15.42;100.00;100744.22;5065200;28;20044;-58
2022/09/15 08:08:49;;;;;;;9.75;4.15;;;;;;;15.43;100.00;100751.31;5058188;28;20122;-55
2022/09/15 08:11:22;;;;;;;10.57;4.00;;;;;;;15.43;100.00;100751.31;5072660;28;20084;-54
2022/09/15 08:13:51;;;;;;;15.27;4.88;;;;;;;15.45;100.00;100751.84;5070677;28;20430;-55
2022/09/15 08:16:21;;;;;;;10.48;4.00;;;;;;;15.45;100.00;100744.41;5070902;28;20049;-58
2022/09/15 08:18:51;;;;;;;10.02;3.83;;;;;;;15.46;100.00;100742.47;5047085;28;20545;-57
2022/09/15 08:21:20;;;;;;;16.30;4.50;;;;;;;15.48;100.00;100751.22;5053494;28;20405;-56
2022/09/15 08:23:54;;;;;;;8.60;4.22;;;;;;;15.49;100.00;100750.09;5045375;28;20103;-57
2022/09/15 08:26:23;;;;;;;11.68;4.15;;;;;;;15.49;100.00;100755.59;5062501;28;20041;-53
2022/09/15 08:28:51;;;;;;;8.32;3.45;;;;;;;15.51;100.00;100750.59;5066423;28;20044;-57
2022/09/15 08:31:19;;;;;;;12.70;3.60;;;;;;;15.54;100.00;100756.31;5061548;28;20048;-55
2022/09/15 08:33:48;;;;;;;7.03;3.20;;;;;;;15.57;99.13;100763.13;5052076;28;20045;-58
2022/09/15 08:36:16;;;;;;;10.52;3.38;;;;;;;15.58;98.91;100756.53;5061870;28;20036;-56
2022/09/15 08:38:44;;;;;;;10.48;3.53;;;;;;;15.59;98.72;100760.91;5068038;28;20413;-53
2022/09/15 08:41:32;;;;;;;10.52;3.85;;;;;;;15.63;98.03;100766.59;5067480;28;20048;-54
2022/09/15 08:44:03;;;;;;;7.68;3.95;;;;;;;15.65;97.35;100769.88;5060496;28;20036;-54
2022/09/15 08:46:41;;;;;;;11.43;4.00;;;;;;;15.65;95.89;100780.84;5065408;28;20033;-55
2022/09/15 08:49:22;;;;;;;8.90;3.28;;;;;;;15.66;96.05;100780.56;5060719;28;20037;-57
2022/09/15 08:52:31;;;;;;;10.70;3.40;;;;;;;15.68;95.72;100775.56;5060384;28;20044;-54
2022/09/15 08:55:03;;;;;;;9.52;3.45;;;;;;;15.71;96.51;100783.22;5070045;28;20036;-55
2022/09/15 08:57:31;;;;;;;12.65;3.53;;;;;;;15.73;97.24;100778.25;5075990;28;20040;-55
2022/09/15 08:59:59;;;;;;;12.73;3.80;;;;;;;15.76;97.15;100782.31;5058215;28;20040;-53
2022/09/15 09:02:48;;;;;;;16.33;3.88;;;;;;;15.76;94.55;100780.38;5075841;28;20044;-57
2022/09/15 09:05:41;;;;;;;8.52;3.15;;;;;;;15.78;92.61;100788.34;5070970;28;20048;-55
2022/09/15 09:08:17;;;;;;;11.85;3.25;;;;;;;15.79;91.98;100791.88;5054488;28;20090;-54
2022/09/15 09:10:54;;;;;;;13.43;3.78;;;;;;;15.81;91.55;100797.91;5068891;28;20064;-55
2022/09/15 09:13:37;;;;;;;11.23;3.20;;;;;;;15.82;91.36;100807.75;5057968;28;20052;-54
2022/09/15 09:16:23;;;;;;;8.70;3.17;;;;;;;15.81;91.10;100804.19;5072354;28;20049;-52
2022/09/15 09:19:09;;;;;;;17.20;4.22;;;;;;;15.82;90.06;100810.50;5074736;28;20040;-57
2022/09/15 09:21:43;;;;;;;11.55;2.85;;;;;;;15.83;89.62;100809.41;5075593;28;20502;-55
2022/09/15 09:24:11;;;;;;;12.07;3.40;;;;;;;15.82;89.17;100802.25;5065764;28;20033;-53
2022/09/15 09:26:39;;;;;;;13.38;3.08;;;;;;;15.82;87.86;100811.31;5057022;28;20041;-54
2022/09/15 09:29:18;;;;;;;7.80;3.10;;;;;;;15.83;88.09;100814.91;5040620;28;20047;-54
2022/09/15 09:31:51;;;;;;;9.20;2.70;;;;;;;15.84;89.53;100811.03;5075252;28;20048;-55
2022/09/15 09:34:40;;;;;;;9.32;2.95;;;;;;;15.84;88.52;100805.53;5053320;28;20067;-58
2022/09/15 09:37:10;;;;;;;8.80;2.50;;;;;;;15.86;88.24;100806.84;5067386;28;20044;-55
2022/09/15 09:39:38;;;;;;;14.23;2.75;;;;;;;15.85;88.64;100796.16;5039917;28;20037;-55
2022/09/15 09:42:11;;;;;;;12.10;3.20;;;;;;;15.84;88.19;100800.84;5066053;28;20413;-53
2022/09/15 09:44:40;;;;;;;9.60;2.90;;;;;;;15.83;88.42;100806.66;5070652;28;20047;-56
2022/09/15 09:47:08;;;;;;;8.95;2.78;;;;;;;15.83;89.77;100803.91;5034688;28;20040;-55
2022/09/15 09:49:47;;;;;;;12.35;3.20;;;;;;;15.82;90.34;100807.75;5063147;28;20033;-58
2022/09/15 09:52:38;;;;;;;12.63;3.65;;;;;;;15.81;90.87;100811.63;5072444;28;20055;-57
2022/09/15 09:55:18;;;;;;;7.60;2.78;;;;;;;15.81;90.71;100814.38;5048564;28;20045;-57
2022/09/15 09:57:45;;;;;;;13.45;3.33;;;;;;;15.82;90.97;100814.06;5070693;28;20052;-55
2022/09/15 10:00:34;;;;;;;11.68;2.70;;;;;;;15.80;89.78;100808.06;5061014;28;20029;-54
2022/09/15 10:03:28;;;;;;;9.23;2.70;;;;;;;15.81;90.30;100808.88;5062445;28;20041;-56
2022/09/15 10:06:04;;;;;;;9.98;2.67;;;;;;;15.82;90.58;100821.50;5070014;28;20052;-55
2022/09/15 10:08:33;;;;;;;9.77;2.97;;;;;;;15.85;91.17;100807.97;5074065;28;20044;-57
2022/09/15 10:11:09;;;;;;;10.27;2.63;;;;;;;15.89;91.74;100817.22;5066055;28;20049;-58
2022/09/15 10:13:50;;;;;;;8.93;2.70;;;;;;;15.95;91.76;100817.97;5063519;28;20044;-58
2022/09/15 10:16:18;;;;;;;8.73;3.13;;;;;;;15.94;92.33;100806.13;5057139;28;20036;-56
2022/09/15 10:18:49;;;;;;;11.43;2.83;;;;;;;16.07;91.27;100807.28;5067895;28;20068;-55
2022/09/15 10:21:25;;;;;;;9.05;2.80;;;;;;;16.03;91.35;100809.00;5071448;28;20501;-54
2022/09/15 10:23:52;;;;;;;15.40;3.40;;;;;;;15.99;92.24;100807.97;5074273;28;20085;-54
2022/09/15 10:26:34;;;;;;;10.63;3.22;;;;;;;15.94;93.58;100802.56;5073074;28;20487;-53
2022/09/15 10:29:12;;;;;;;9.50;2.90;;;;;;;15.91;93.54;100814.19;5068850;28;20044;-55
2022/09/15 10:31:42;;;;;;;7.80;2.80;;;;;;;15.86;93.32;100819.78;5072052;28;20044;-54
2022/09/15 10:34:30;;;;;;;13.05;3.17;;;;;;;15.81;96.11;100831.69;5072677;28;20101;-56
2022/09/15 10:37:07;;;;;;;14.25;3.35;;;;;;;15.65;98.38;100846.78;5072147;28;20047;-56
2022/09/15 10:39:56;;;;;;;13.35;2.50;;;;;;;15.45;92.64;100848.75;5052871;28;20041;-55
2022/09/15 10:42:34;;;;;;;15.10;3.28;;;;;;;15.37;94.63;100834.88;5055991;28;20445;-54
2022/09/15 10:45:08;;;;;;;9.13;2.22;;;;;;;15.32;95.74;100833.88;5063737;28;20045;-56
2022/09/15 10:47:57;;;;;;;5.90;1.77;;;;;;;15.29;94.72;100830.88;5067890;28;20048;-55
2022/09/15 10:50:43;;;;;;;9.30;2.03;;;;;;;15.29;95.36;100831.69;5067799;28;20045;-54
2022/09/15 10:53:13;;;;;;;;;;;;;;;15.29;95.22;100834.44;5073102;28;20074;-54
2022/09/15 10:55:58;;;;;;;10.02;2.10;;;;;;;15.32;94.82;100831.13;5070609;28;19931;-55
2022/09/15 10:58:48;;;;;;;8.68;1.92;;;;;;;15.37;95.03;100823.91;5073835;28;20052;-55
2022/09/15 11:01:27;;;;;;;5.88;1.98;;;;;;;15.38;95.07;100817.31;5072617;28;20072;-54
2022/09/15 11:04:14;;;;;;;7.18;1.90;;;;;;;15.40;95.90;100818.63;5073066;28;20040;-57
2022/09/15 11:06:57;;;;;;;6.28;1.80;;;;;;;15.43;96.37;100817.22;5055064;28;20044;-57
2022/09/15 11:09:36;;;;;;;8.57;2.55;;;;;;;15.46;95.82;100822.09;5071334;28;20052;-55
2022/09/15 11:12:25;;;;;;;5.00;1.73;;;;;;;15.48;95.98;100825.38;5069440;28;20049;-54
2022/09/15 11:15:23;;;;;;;7.47;2.17;;;;;;;15.52;95.19;100809.94;5065002;28;20186;-55
2022/09/15 11:17:51;;;;;;;6.20;2.30;;;;;;;15.55;94.14;100814.81;5070594;28;20044;-55
2022/09/15 11:20:49;;;;;;;7.43;2.25;;;;;;;15.57;93.63;100817.25;5073288;28;20059;-55
2022/09/15 11:23:23;;;;;;;7.80;1.85;;;;;;;15.61;93.61;100816.34;5065140;28;20048;-53
2022/09/15 11:26:16;;;;;;;9.90;2.60;;;;;;;15.69;94.04;100815.66;5055054;28;20060;-56
2022/09/15 11:28:53;;;;;;;9.75;1.98;;;;;;;15.74;94.10;100818.31;5060948;28;20047;-57
2022/09/15 11:31:30;;;;;;;4.70;2.10;;;;;;;15.81;94.77;100828.13;5070131;28;20070;-53
2022/09/15 11:34:19;;;;;;;7.55;2.25;;;;;;;15.84;94.54;100828.31;5070896;28;20117;-56
2022/09/15 11:37:04;;;;;;;8.20;2.10;;;;;;;15.89;93.13;100832.91;5075559;28;20559;-58